OKBK/KWI METAR and TAF weather

Enter ICAO airport designator
Station Type Date Time Source
OKBK METAR 2022/06/28 23:00 UTC NOAA

OKBK 282300Z 33016KT CAVOK 34/05 Q0999 NOSIG


Station Type Date Time Source
OKBK Decoded METAR 2022/06/28 23:00 UTC NOAA

Kuwait Internationalairport, Kuwait (OKBK) 29-13N 047-59E 55M
Jun 28, 2022 - 07:00 PM EDT / 2022.06.28 2300 UTC
Wind: from the NNW (330 degrees) at 18 MPH (16 KT):0
Visibility: greater than 7 mile(s):0
Temperature: 93 F (34 C)
Dew Point: 41 F (5 C)
Relative Humidity: 16%
Pressure (altimeter): 29.50 in. Hg (0999 hPa)
ob: OKBK 282300Z 33016KT CAVOK 34/05 Q0999 NOSIG
cycle: 23

Station Type Date Time Source
OKBK TAF 2022/06/28 18:12 UTC NOAA

TAF TAF OKBK 281700Z 2818/2924 35012G22KT 7000 NSC
TEMPO 2907/2914 3000 BLDU

Example: see airport list